sensor_id;sensor_type;location;lat;lon;timestamp;P1;durP1;ratioP1;P2;durP2;ratioP2
25213;SDS011;13160;51.834;4.706;2023-06-10T00:00:09;10.13;;;8.88;;
25213;SDS011;13160;51.834;4.706;2023-06-10T00:02:42;11.88;;;10.48;;
25213;SDS011;13160;51.834;4.706;2023-06-10T00:05:11;17.35;;;10.05;;
25213;SDS011;13160;51.834;4.706;2023-06-10T00:07:39;13.15;;;9.80;;
25213;SDS011;13160;51.834;4.706;2023-06-10T00:10:08;12.23;;;10.43;;
25213;SDS011;13160;51.834;4.706;2023-06-10T00:12:37;13.80;;;10.50;;
25213;SDS011;13160;51.834;4.706;2023-06-10T00:15:07;10.52;;;9.43;;
25213;SDS011;13160;51.834;4.706;2023-06-10T00:17:37;14.30;;;10.77;;
25213;SDS011;13160;51.834;4.706;2023-06-10T00:20:10;11.85;;;10.65;;
25213;SDS011;13160;51.834;4.706;2023-06-10T00:22:39;11.65;;;10.32;;
25213;SDS011;13160;51.834;4.706;2023-06-10T00:25:12;11.93;;;10.65;;
25213;SDS011;13160;51.834;4.706;2023-06-10T00:27:41;11.73;;;10.43;;
25213;SDS011;13160;51.834;4.706;2023-06-10T00:30:10;13.25;;;11.45;;
25213;SDS011;13160;51.834;4.706;2023-06-10T00:32:39;12.35;;;11.07;;
25213;SDS011;13160;51.834;4.706;2023-06-10T00:35:09;13.40;;;11.73;;
25213;SDS011;13160;51.834;4.706;2023-06-10T00:37:38;13.60;;;11.32;;
25213;SDS011;13160;51.834;4.706;2023-06-10T00:40:07;13.13;;;11.73;;
25213;SDS011;13160;51.834;4.706;2023-06-10T00:42:37;15.00;;;11.88;;
25213;SDS011;13160;51.834;4.706;2023-06-10T00:45:06;14.40;;;11.60;;
25213;SDS011;13160;51.834;4.706;2023-06-10T00:47:35;13.90;;;12.50;;
25213;SDS011;13160;51.834;4.706;2023-06-10T00:50:04;13.82;;;11.55;;
25213;SDS011;13160;51.834;4.706;2023-06-10T00:52:35;15.57;;;12.10;;
25213;SDS011;13160;51.834;4.706;2023-06-10T00:55:04;13.38;;;11.77;;
25213;SDS011;13160;51.834;4.706;2023-06-10T00:57:36;13.93;;;11.27;;
25213;SDS011;13160;51.834;4.706;2023-06-10T01:00:05;13.73;;;12.25;;
25213;SDS011;13160;51.834;4.706;2023-06-10T01:02:36;15.20;;;11.90;;
25213;SDS011;13160;51.834;4.706;2023-06-10T01:05:05;14.77;;;12.02;;
25213;SDS011;13160;51.834;4.706;2023-06-10T01:07:37;14.73;;;12.75;;
25213;SDS011;13160;51.834;4.706;2023-06-10T01:10:13;13.60;;;11.73;;
25213;SDS011;13160;51.834;4.706;2023-06-10T01:12:49;13.57;;;11.98;;
25213;SDS011;13160;51.834;4.706;2023-06-10T01:15:29;15.35;;;12.75;;
25213;SDS011;13160;51.834;4.706;2023-06-10T01:17:59;15.30;;;12.48;;
25213;SDS011;13160;51.834;4.706;2023-06-10T01:20:31;13.75;;;12.07;;
25213;SDS011;13160;51.834;4.706;2023-06-10T01:23:01;13.55;;;12.18;;
25213;SDS011;13160;51.834;4.706;2023-06-10T01:25:30;12.90;;;11.60;;
25213;SDS011;13160;51.834;4.706;2023-06-10T01:28:03;18.52;;;12.80;;
25213;SDS011;13160;51.834;4.706;2023-06-10T01:30:39;14.13;;;12.63;;
25213;SDS011;13160;51.834;4.706;2023-06-10T01:33:13;15.00;;;13.50;;
25213;SDS011;13160;51.834;4.706;2023-06-10T01:35:45;15.05;;;12.50;;
25213;SDS011;13160;51.834;4.706;2023-06-10T01:38:16;14.77;;;12.63;;
25213;SDS011;13160;51.834;4.706;2023-06-10T01:40:48;14.82;;;12.65;;
25213;SDS011;13160;51.834;4.706;2023-06-10T01:43:18;15.98;;;13.52;;
25213;SDS011;13160;51.834;4.706;2023-06-10T01:45:48;18.25;;;13.73;;
25213;SDS011;13160;51.834;4.706;2023-06-10T01:48:16;15.90;;;13.32;;
25213;SDS011;13160;51.834;4.706;2023-06-10T01:50:45;15.23;;;13.68;;
25213;SDS011;13160;51.834;4.706;2023-06-10T01:53:13;15.93;;;13.32;;
25213;SDS011;13160;51.834;4.706;2023-06-10T01:55:43;16.75;;;14.32;;
25213;SDS011;13160;51.834;4.706;2023-06-10T01:58:12;14.50;;;13.00;;
25213;SDS011;13160;51.834;4.706;2023-06-10T02:00:40;16.55;;;14.00;;
25213;SDS011;13160;51.834;4.706;2023-06-10T02:03:09;16.63;;;14.02;;
25213;SDS011;13160;51.834;4.706;2023-06-10T02:05:38;15.20;;;13.73;;
25213;SDS011;13160;51.834;4.706;2023-06-10T02:08:07;15.27;;;13.70;;
25213;SDS011;13160;51.834;4.706;2023-06-10T02:10:35;15.68;;;14.07;;
25213;SDS011;13160;51.834;4.706;2023-06-10T02:13:06;16.23;;;14.48;;
25213;SDS011;13160;51.834;4.706;2023-06-10T02:15:35;16.13;;;14.23;;
25213;SDS011;13160;51.834;4.706;2023-06-10T02:18:03;17.70;;;14.85;;
25213;SDS011;13160;51.834;4.706;2023-06-10T02:20:33;15.70;;;13.63;;
25213;SDS011;13160;51.834;4.706;2023-06-10T02:23:01;16.48;;;14.30;;
25213;SDS011;13160;51.834;4.706;2023-06-10T02:25:30;20.90;;;14.15;;
25213;SDS011;13160;51.834;4.706;2023-06-10T02:27:58;20.23;;;14.30;;
25213;SDS011;13160;51.834;4.706;2023-06-10T02:30:28;16.90;;;14.70;;
25213;SDS011;13160;51.834;4.706;2023-06-10T02:32:57;16.27;;;14.57;;
25213;SDS011;13160;51.834;4.706;2023-06-10T02:35:26;16.77;;;14.38;;
25213;SDS011;13160;51.834;4.706;2023-06-10T02:37:54;17.58;;;14.73;;
25213;SDS011;13160;51.834;4.706;2023-06-10T02:40:22;15.57;;;14.00;;
25213;SDS011;13160;51.834;4.706;2023-06-10T02:42:51;16.35;;;14.57;;
25213;SDS011;13160;51.834;4.706;2023-06-10T02:45:20;15.93;;;14.23;;
25213;SDS011;13160;51.834;4.706;2023-06-10T02:47:49;16.75;;;14.95;;
25213;SDS011;13160;51.834;4.706;2023-06-10T02:50:18;18.55;;;14.68;;
25213;SDS011;13160;51.834;4.706;2023-06-10T02:52:48;15.90;;;14.40;;
25213;SDS011;13160;51.834;4.706;2023-06-10T02:55:16;17.75;;;15.65;;
25213;SDS011;13160;51.834;4.706;2023-06-10T02:57:45;17.13;;;15.43;;
25213;SDS011;13160;51.834;4.706;2023-06-10T03:00:14;17.17;;;14.82;;
25213;SDS011;13160;51.834;4.706;2023-06-10T03:02:44;17.05;;;15.13;;
25213;SDS011;13160;51.834;4.706;2023-06-10T03:05:14;17.58;;;15.75;;
25213;SDS011;13160;51.834;4.706;2023-06-10T03:07:43;20.30;;;15.55;;
25213;SDS011;13160;51.834;4.706;2023-06-10T03:10:14;17.67;;;15.25;;
25213;SDS011;13160;51.834;4.706;2023-06-10T03:12:44;17.27;;;15.57;;
25213;SDS011;13160;51.834;4.706;2023-06-10T03:15:13;16.70;;;14.93;;
25213;SDS011;13160;51.834;4.706;2023-06-10T03:17:42;17.23;;;15.50;;
25213;SDS011;13160;51.834;4.706;2023-06-10T03:20:11;17.13;;;15.30;;
25213;SDS011;13160;51.834;4.706;2023-06-10T03:22:43;18.02;;;15.73;;
25213;SDS011;13160;51.834;4.706;2023-06-10T03:25:12;16.90;;;14.30;;
25213;SDS011;13160;51.834;4.706;2023-06-10T03:27:41;17.98;;;15.25;;
25213;SDS011;13160;51.834;4.706;2023-06-10T03:30:11;17.77;;;14.85;;
25213;SDS011;13160;51.834;4.706;2023-06-10T03:32:40;17.00;;;14.65;;
25213;SDS011;13160;51.834;4.706;2023-06-10T03:35:09;18.02;;;15.57;;
25213;SDS011;13160;51.834;4.706;2023-06-10T03:37:39;16.98;;;14.88;;
25213;SDS011;13160;51.834;4.706;2023-06-10T03:40:08;17.23;;;14.68;;
25213;SDS011;13160;51.834;4.706;2023-06-10T03:42:37;17.23;;;15.07;;
25213;SDS011;13160;51.834;4.706;2023-06-10T03:45:06;16.42;;;14.65;;
25213;SDS011;13160;51.834;4.706;2023-06-10T03:47:37;17.27;;;15.27;;
25213;SDS011;13160;51.834;4.706;2023-06-10T03:50:07;21.23;;;15.07;;
25213;SDS011;13160;51.834;4.706;2023-06-10T03:52:37;17.05;;;14.25;;
25213;SDS011;13160;51.834;4.706;2023-06-10T03:55:08;18.27;;;14.70;;
25213;SDS011;13160;51.834;4.706;2023-06-10T03:57:38;17.13;;;14.95;;
25213;SDS011;13160;51.834;4.706;2023-06-10T04:00:07;17.98;;;13.88;;
25213;SDS011;13160;51.834;4.706;2023-06-10T04:02:38;19.40;;;14.35;;
25213;SDS011;13160;51.834;4.706;2023-06-10T04:05:12;17.60;;;14.05;;
25213;SDS011;13160;51.834;4.706;2023-06-10T04:07:43;17.15;;;14.90;;
25213;SDS011;13160;51.834;4.706;2023-06-10T04:10:12;15.52;;;13.93;;
25213;SDS011;13160;51.834;4.706;2023-06-10T04:12:40;15.25;;;13.75;;
25213;SDS011;13160;51.834;4.706;2023-06-10T04:15:09;16.23;;;13.82;;
25213;SDS011;13160;51.834;4.706;2023-06-10T04:17:39;16.23;;;13.82;;
25213;SDS011;13160;51.834;4.706;2023-06-10T04:20:09;14.35;;;12.85;;
25213;SDS011;13160;51.834;4.706;2023-06-10T04:22:38;17.13;;;13.07;;
25213;SDS011;13160;51.834;4.706;2023-06-10T04:25:09;17.77;;;12.93;;
25213;SDS011;13160;51.834;4.706;2023-06-10T04:27:38;16.95;;;14.02;;
25213;SDS011;13160;51.834;4.706;2023-06-10T04:30:07;17.50;;;13.02;;
25213;SDS011;13160;51.834;4.706;2023-06-10T04:32:39;19.55;;;13.13;;
25213;SDS011;13160;51.834;4.706;2023-06-10T04:35:08;14.15;;;12.32;;
25213;SDS011;13160;51.834;4.706;2023-06-10T04:37:40;15.60;;;12.75;;
25213;SDS011;13160;51.834;4.706;2023-06-10T04:40:11;18.63;;;13.32;;
25213;SDS011;13160;51.834;4.706;2023-06-10T04:42:40;17.25;;;13.20;;
25213;SDS011;13160;51.834;4.706;2023-06-10T04:45:08;13.65;;;12.25;;
25213;SDS011;13160;51.834;4.706;2023-06-10T04:47:38;15.75;;;12.18;;
25213;SDS011;13160;51.834;4.706;2023-06-10T04:50:06;14.25;;;12.07;;
25213;SDS011;13160;51.834;4.706;2023-06-10T04:52:36;13.07;;;11.77;;
25213;SDS011;13160;51.834;4.706;2023-06-10T04:55:04;16.17;;;12.60;;
25213;SDS011;13160;51.834;4.706;2023-06-10T04:57:37;13.40;;;11.52;;
25213;SDS011;13160;51.834;4.706;2023-06-10T05:00:06;16.67;;;12.13;;
25213;SDS011;13160;51.834;4.706;2023-06-10T05:02:36;17.48;;;11.65;;
25213;SDS011;13160;51.834;4.706;2023-06-10T05:05:04;13.50;;;11.73;;
25213;SDS011;13160;51.834;4.706;2023-06-10T05:07:34;13.98;;;11.55;;
25213;SDS011;13160;51.834;4.706;2023-06-10T05:10:03;13.70;;;11.90;;
25213;SDS011;13160;51.834;4.706;2023-06-10T05:12:32;13.43;;;11.65;;
25213;SDS011;13160;51.834;4.706;2023-06-10T05:15:03;17.17;;;11.85;;
25213;SDS011;13160;51.834;4.706;2023-06-10T05:17:33;17.33;;;11.73;;
25213;SDS011;13160;51.834;4.706;2023-06-10T05:20:02;16.30;;;11.30;;
25213;SDS011;13160;51.834;4.706;2023-06-10T05:22:31;14.23;;;11.68;;
25213;SDS011;13160;51.834;4.706;2023-06-10T05:25:00;14.77;;;11.30;;
25213;SDS011;13160;51.834;4.706;2023-06-10T05:27:29;15.73;;;10.98;;
25213;SDS011;13160;51.834;4.706;2023-06-10T05:29:57;18.33;;;10.88;;
25213;SDS011;13160;51.834;4.706;2023-06-10T05:32:27;13.23;;;11.23;;
25213;SDS011;13160;51.834;4.706;2023-06-10T05:34:56;12.27;;;10.48;;
25213;SDS011;13160;51.834;4.706;2023-06-10T05:37:26;14.23;;;10.43;;
25213;SDS011;13160;51.834;4.706;2023-06-10T05:39:55;11.98;;;9.82;;
25213;SDS011;13160;51.834;4.706;2023-06-10T05:42:23;14.18;;;10.27;;
25213;SDS011;13160;51.834;4.706;2023-06-10T05:44:53;13.95;;;10.65;;
25213;SDS011;13160;51.834;4.706;2023-06-10T05:47:22;15.82;;;9.85;;
25213;SDS011;13160;51.834;4.706;2023-06-10T05:49:52;12.20;;;9.82;;
25213;SDS011;13160;51.834;4.706;2023-06-10T05:52:21;18.65;;;10.60;;
25213;SDS011;13160;51.834;4.706;2023-06-10T05:54:50;14.50;;;10.30;;
25213;SDS011;13160;51.834;4.706;2023-06-10T05:57:19;14.32;;;10.30;;
25213;SDS011;13160;51.834;4.706;2023-06-10T05:59:47;13.35;;;9.90;;
25213;SDS011;13160;51.834;4.706;2023-06-10T06:02:16;16.42;;;10.43;;
25213;SDS011;13160;51.834;4.706;2023-06-10T06:04:44;17.45;;;10.00;;
25213;SDS011;13160;51.834;4.706;2023-06-10T06:07:14;13.80;;;9.75;;
25213;SDS011;13160;51.834;4.706;2023-06-10T06:09:43;13.15;;;9.48;;
25213;SDS011;13160;51.834;4.706;2023-06-10T06:12:11;14.57;;;10.32;;
25213;SDS011;13160;51.834;4.706;2023-06-10T06:14:40;13.57;;;10.07;;
25213;SDS011;13160;51.834;4.706;2023-06-10T06:17:08;15.15;;;9.88;;
25213;SDS011;13160;51.834;4.706;2023-06-10T06:19:37;14.68;;;10.05;;
25213;SDS011;13160;51.834;4.706;2023-06-10T06:22:05;14.55;;;9.88;;
25213;SDS011;13160;51.834;4.706;2023-06-10T06:24:35;13.40;;;9.88;;
25213;SDS011;13160;51.834;4.706;2023-06-10T06:27:04;15.30;;;10.63;;
25213;SDS011;13160;51.834;4.706;2023-06-10T06:29:33;12.82;;;9.70;;
25213;SDS011;13160;51.834;4.706;2023-06-10T06:32:02;14.77;;;10.00;;
25213;SDS011;13160;51.834;4.706;2023-06-10T06:34:31;12.15;;;8.85;;
25213;SDS011;13160;51.834;4.706;2023-06-10T06:37:00;15.68;;;9.00;;
25213;SDS011;13160;51.834;4.706;2023-06-10T06:39:29;13.23;;;10.00;;
25213;SDS011;13160;51.834;4.706;2023-06-10T06:41:59;12.50;;;8.60;;
25213;SDS011;13160;51.834;4.706;2023-06-10T06:44:28;15.40;;;9.15;;
25213;SDS011;13160;51.834;4.706;2023-06-10T06:46:58;16.35;;;8.82;;
25213;SDS011;13160;51.834;4.706;2023-06-10T06:49:30;14.57;;;8.88;;
25213;SDS011;13160;51.834;4.706;2023-06-10T06:52:05;12.48;;;8.27;;
25213;SDS011;13160;51.834;4.706;2023-06-10T06:54:35;13.27;;;8.15;;
25213;SDS011;13160;51.834;4.706;2023-06-10T06:57:08;11.93;;;7.97;;
25213;SDS011;13160;51.834;4.706;2023-06-10T06:59:42;13.40;;;9.40;;
25213;SDS011;13160;51.834;4.706;2023-06-10T07:02:23;12.85;;;8.43;;
25213;SDS011;13160;51.834;4.706;2023-06-10T07:04:51;11.38;;;8.63;;
25213;SDS011;13160;51.834;4.706;2023-06-10T07:07:22;12.43;;;8.18;;
25213;SDS011;13160;51.834;4.706;2023-06-10T07:09:56;12.13;;;8.32;;
25213;SDS011;13160;51.834;4.706;2023-06-10T07:12:27;11.82;;;8.63;;
25213;SDS011;13160;51.834;4.706;2023-06-10T07:14:55;13.55;;;8.45;;
25213;SDS011;13160;51.834;4.706;2023-06-10T07:17:24;12.15;;;8.20;;
25213;SDS011;13160;51.834;4.706;2023-06-10T07:19:53;14.75;;;8.05;;
25213;SDS011;13160;51.834;4.706;2023-06-10T07:22:23;11.30;;;7.72;;
25213;SDS011;13160;51.834;4.706;2023-06-10T07:24:53;14.77;;;8.48;;
25213;SDS011;13160;51.834;4.706;2023-06-10T07:27:26;12.70;;;8.15;;
25213;SDS011;13160;51.834;4.706;2023-06-10T07:29:55;11.57;;;7.82;;
25213;SDS011;13160;51.834;4.706;2023-06-10T07:32:26;11.40;;;8.18;;
25213;SDS011;13160;51.834;4.706;2023-06-10T07:34:59;15.23;;;7.80;;
25213;SDS011;13160;51.834;4.706;2023-06-10T07:37:38;10.65;;;7.50;;
25213;SDS011;13160;51.834;4.706;2023-06-10T07:40:08;12.27;;;7.47;;
25213;SDS011;13160;51.834;4.706;2023-06-10T07:42:39;11.13;;;7.70;;
25213;SDS011;13160;51.834;4.706;2023-06-10T07:45:09;12.00;;;7.72;;
25213;SDS011;13160;51.834;4.706;2023-06-10T07:47:38;11.20;;;7.38;;
25213;SDS011;13160;51.834;4.706;2023-06-10T07:50:08;14.13;;;7.68;;
25213;SDS011;13160;51.834;4.706;2023-06-10T07:52:37;13.80;;;8.10;;
25213;SDS011;13160;51.834;4.706;2023-06-10T07:55:06;10.88;;;7.82;;
25213;SDS011;13160;51.834;4.706;2023-06-10T07:57:36;11.25;;;7.03;;
25213;SDS011;13160;51.834;4.706;2023-06-10T08:00:07;13.95;;;6.72;;
25213;SDS011;13160;51.834;4.706;2023-06-10T08:02:37;9.32;;;7.30;;
25213;SDS011;13160;51.834;4.706;2023-06-10T08:05:07;9.10;;;6.63;;
25213;SDS011;13160;51.834;4.706;2023-06-10T08:07:36;12.00;;;6.85;;
25213;SDS011;13160;51.834;4.706;2023-06-10T08:10:05;13.93;;;7.63;;
25213;SDS011;13160;51.834;4.706;2023-06-10T08:12:35;12.05;;;6.60;;
25213;SDS011;13160;51.834;4.706;2023-06-10T08:15:06;11.77;;;6.90;;
25213;SDS011;13160;51.834;4.706;2023-06-10T08:17:37;11.82;;;7.28;;
25213;SDS011;13160;51.834;4.706;2023-06-10T08:20:06;10.00;;;6.75;;
25213;SDS011;13160;51.834;4.706;2023-06-10T08:22:36;8.68;;;6.72;;
25213;SDS011;13160;51.834;4.706;2023-06-10T08:25:04;12.23;;;6.97;;
25213;SDS011;13160;51.834;4.706;2023-06-10T08:27:34;11.20;;;6.68;;
25213;SDS011;13160;51.834;4.706;2023-06-10T08:30:03;9.30;;;6.25;;
25213;SDS011;13160;51.834;4.706;2023-06-10T08:32:36;11.05;;;6.55;;
25213;SDS011;13160;51.834;4.706;2023-06-10T08:35:05;10.18;;;6.30;;
25213;SDS011;13160;51.834;4.706;2023-06-10T08:37:35;9.07;;;6.85;;
25213;SDS011;13160;51.834;4.706;2023-06-10T08:40:04;10.30;;;5.75;;
25213;SDS011;13160;51.834;4.706;2023-06-10T08:42:38;11.48;;;6.55;;
25213;SDS011;13160;51.834;4.706;2023-06-10T08:45:15;10.40;;;6.93;;
25213;SDS011;13160;51.834;4.706;2023-06-10T08:47:46;10.07;;;6.50;;
25213;SDS011;13160;51.834;4.706;2023-06-10T08:50:19;10.25;;;6.97;;
25213;SDS011;13160;51.834;4.706;2023-06-10T08:52:50;8.98;;;6.55;;
25213;SDS011;13160;51.834;4.706;2023-06-10T08:55:23;9.43;;;6.18;;
25213;SDS011;13160;51.834;4.706;2023-06-10T08:57:58;9.18;;;6.72;;
25213;SDS011;13160;51.834;4.706;2023-06-10T09:00:29;11.55;;;6.80;;
25213;SDS011;13160;51.834;4.706;2023-06-10T09:02:59;12.77;;;6.78;;
25213;SDS011;13160;51.834;4.706;2023-06-10T09:05:31;7.93;;;6.68;;
25213;SDS011;13160;51.834;4.706;2023-06-10T09:08:03;11.05;;;6.35;;
25213;SDS011;13160;51.834;4.706;2023-06-10T09:10:32;10.75;;;6.95;;
25213;SDS011;13160;51.834;4.706;2023-06-10T09:13:01;9.77;;;6.53;;
25213;SDS011;13160;51.834;4.706;2023-06-10T09:15:31;8.10;;;6.32;;
25213;SDS011;13160;51.834;4.706;2023-06-10T09:18:00;9.13;;;6.68;;
25213;SDS011;13160;51.834;4.706;2023-06-10T09:20:28;10.60;;;7.32;;
25213;SDS011;13160;51.834;4.706;2023-06-10T09:22:58;11.57;;;6.82;;
25213;SDS011;13160;51.834;4.706;2023-06-10T09:25:34;10.43;;;6.20;;
25213;SDS011;13160;51.834;4.706;2023-06-10T09:28:04;8.90;;;6.80;;
25213;SDS011;13160;51.834;4.706;2023-06-10T09:30:42;9.95;;;6.88;;
25213;SDS011;13160;51.834;4.706;2023-06-10T09:33:11;8.27;;;6.35;;
25213;SDS011;13160;51.834;4.706;2023-06-10T09:35:46;10.73;;;6.53;;
25213;SDS011;13160;51.834;4.706;2023-06-10T09:38:19;12.52;;;6.60;;
25213;SDS011;13160;51.834;4.706;2023-06-10T09:40:49;10.50;;;6.78;;
25213;SDS011;13160;51.834;4.706;2023-06-10T09:43:19;10.23;;;6.95;;
25213;SDS011;13160;51.834;4.706;2023-06-10T09:45:49;11.57;;;7.00;;
25213;SDS011;13160;51.834;4.706;2023-06-10T09:48:19;12.35;;;7.18;;
25213;SDS011;13160;51.834;4.706;2023-06-10T09:50:50;9.13;;;6.95;;
25213;SDS011;13160;51.834;4.706;2023-06-10T09:53:20;11.98;;;6.70;;
25213;SDS011;13160;51.834;4.706;2023-06-10T09:55:48;10.63;;;6.20;;
25213;SDS011;13160;51.834;4.706;2023-06-10T09:58:17;10.18;;;6.75;;
25213;SDS011;13160;51.834;4.706;2023-06-10T10:00:49;11.18;;;6.90;;
25213;SDS011;13160;51.834;4.706;2023-06-10T10:03:22;10.27;;;6.15;;
25213;SDS011;13160;51.834;4.706;2023-06-10T10:05:53;8.55;;;6.82;;
25213;SDS011;13160;51.834;4.706;2023-06-10T10:08:27;9.63;;;6.60;;
25213;SDS011;13160;51.834;4.706;2023-06-10T10:10:56;10.23;;;6.65;;
25213;SDS011;13160;51.834;4.706;2023-06-10T10:13:25;12.25;;;6.60;;
25213;SDS011;13160;51.834;4.706;2023-06-10T10:15:57;9.20;;;6.90;;
25213;SDS011;13160;51.834;4.706;2023-06-10T10:18:31;9.75;;;6.35;;
25213;SDS011;13160;51.834;4.706;2023-06-10T10:21:01;9.38;;;6.78;;
25213;SDS011;13160;51.834;4.706;2023-06-10T10:23:41;10.65;;;6.15;;
25213;SDS011;13160;51.834;4.706;2023-06-10T10:26:23;8.63;;;6.25;;
25213;SDS011;13160;51.834;4.706;2023-06-10T10:28:58;9.57;;;6.20;;
25213;SDS011;13160;51.834;4.706;2023-06-10T10:31:37;9.93;;;6.40;;
25213;SDS011;13160;51.834;4.706;2023-06-10T10:34:07;7.32;;;6.60;;
25213;SDS011;13160;51.834;4.706;2023-06-10T10:36:41;10.15;;;6.93;;
25213;SDS011;13160;51.834;4.706;2023-06-10T10:39:11;12.18;;;6.93;;
25213;SDS011;13160;51.834;4.706;2023-06-10T10:41:40;11.38;;;6.53;;
25213;SDS011;13160;51.834;4.706;2023-06-10T10:44:15;9.82;;;6.47;;
25213;SDS011;13160;51.834;4.706;2023-06-10T10:46:51;9.43;;;6.25;;
25213;SDS011;13160;51.834;4.706;2023-06-10T10:49:20;9.75;;;6.47;;
25213;SDS011;13160;51.834;4.706;2023-06-10T10:51:56;10.95;;;6.35;;
25213;SDS011;13160;51.834;4.706;2023-06-10T10:54:28;9.05;;;6.32;;
25213;SDS011;13160;51.834;4.706;2023-06-10T10:57:14;12.73;;;6.68;;
25213;SDS011;13160;51.834;4.706;2023-06-10T10:59:46;8.45;;;6.60;;
25213;SDS011;13160;51.834;4.706;2023-06-10T11:02:36;9.52;;;5.75;;
25213;SDS011;13160;51.834;4.706;2023-06-10T11:05:11;8.70;;;6.43;;
25213;SDS011;13160;51.834;4.706;2023-06-10T11:07:51;12.02;;;6.20;;
25213;SDS011;13160;51.834;4.706;2023-06-10T11:10:28;8.85;;;6.30;;
25213;SDS011;13160;51.834;4.706;2023-06-10T11:12:58;10.82;;;6.68;;
25213;SDS011;13160;51.834;4.706;2023-06-10T11:15:28;9.38;;;5.78;;
25213;SDS011;13160;51.834;4.706;2023-06-10T11:18:20;8.60;;;6.60;;
25213;SDS011;13160;51.834;4.706;2023-06-10T11:20:51;8.38;;;5.80;;
25213;SDS011;13160;51.834;4.706;2023-06-10T11:23:35;9.70;;;6.68;;
25213;SDS011;13160;51.834;4.706;2023-06-10T11:26:09;11.80;;;6.15;;
25213;SDS011;13160;51.834;4.706;2023-06-10T11:31:35;7.50;;;5.68;;
25213;SDS011;13160;51.834;4.706;2023-06-10T11:34:24;10.43;;;5.85;;
25213;SDS011;13160;51.834;4.706;2023-06-10T11:36:53;8.73;;;6.35;;
25213;SDS011;13160;51.834;4.706;2023-06-10T11:39:23;8.85;;;6.00;;
25213;SDS011;13160;51.834;4.706;2023-06-10T11:41:53;14.57;;;5.75;;
25213;SDS011;13160;51.834;4.706;2023-06-10T11:44:22;12.85;;;6.57;;
25213;SDS011;13160;51.834;4.706;2023-06-10T11:46:58;10.38;;;6.63;;
25213;SDS011;13160;51.834;4.706;2023-06-10T11:49:28;6.95;;;5.55;;
25213;SDS011;13160;51.834;4.706;2023-06-10T11:51:57;8.48;;;6.40;;
25213;SDS011;13160;51.834;4.706;2023-06-10T11:54:29;9.82;;;6.25;;
25213;SDS011;13160;51.834;4.706;2023-06-10T11:56:57;7.55;;;5.75;;
25213;SDS011;13160;51.834;4.706;2023-06-10T11:59:27;9.00;;;5.85;;
25213;SDS011;13160;51.834;4.706;2023-06-10T12:01:56;8.45;;;5.80;;
25213;SDS011;13160;51.834;4.706;2023-06-10T12:04:24;10.88;;;6.38;;
25213;SDS011;13160;51.834;4.706;2023-06-10T12:06:54;8.75;;;6.25;;
25213;SDS011;13160;51.834;4.706;2023-06-10T12:09:24;8.27;;;6.00;;
25213;SDS011;13160;51.834;4.706;2023-06-10T12:11:55;8.93;;;6.40;;
25213;SDS011;13160;51.834;4.706;2023-06-10T12:17:23;8.98;;;6.57;;
25213;SDS011;13160;51.834;4.706;2023-06-10T12:20:06;8.50;;;6.13;;
25213;SDS011;13160;51.834;4.706;2023-06-10T12:22:40;11.50;;;6.78;;
25213;SDS011;13160;51.834;4.706;2023-06-10T12:25:11;9.98;;;6.35;;
25213;SDS011;13160;51.834;4.706;2023-06-10T12:27:49;9.27;;;6.53;;
25213;SDS011;13160;51.834;4.706;2023-06-10T12:30:19;9.38;;;5.75;;
25213;SDS011;13160;51.834;4.706;2023-06-10T12:32:49;7.95;;;6.65;;
25213;SDS011;13160;51.834;4.706;2023-06-10T12:35:20;8.23;;;6.13;;
25213;SDS011;13160;51.834;4.706;2023-06-10T12:37:56;8.73;;;6.60;;
25213;SDS011;13160;51.834;4.706;2023-06-10T12:40:28;10.25;;;6.50;;
25213;SDS011;13160;51.834;4.706;2023-06-10T12:42:58;8.68;;;6.40;;
25213;SDS011;13160;51.834;4.706;2023-06-10T12:45:28;7.60;;;5.97;;
25213;SDS011;13160;51.834;4.706;2023-06-10T12:48:05;8.82;;;6.05;;
25213;SDS011;13160;51.834;4.706;2023-06-10T12:50:36;8.60;;;6.60;;
25213;SDS011;13160;51.834;4.706;2023-06-10T12:53:07;11.25;;;6.50;;
25213;SDS011;13160;51.834;4.706;2023-06-10T12:55:38;8.63;;;5.80;;
25213;SDS011;13160;51.834;4.706;2023-06-10T12:58:08;9.20;;;5.95;;
25213;SDS011;13160;51.834;4.706;2023-06-10T13:00:37;10.93;;;6.90;;
25213;SDS011;13160;51.834;4.706;2023-06-10T13:03:06;7.43;;;6.22;;
25213;SDS011;13160;51.834;4.706;2023-06-10T13:05:36;9.07;;;5.93;;
25213;SDS011;13160;51.834;4.706;2023-06-10T13:08:05;9.75;;;7.10;;
25213;SDS011;13160;51.834;4.706;2023-06-10T13:10:36;10.80;;;6.68;;
25213;SDS011;13160;51.834;4.706;2023-06-10T13:13:05;8.35;;;6.32;;
25213;SDS011;13160;51.834;4.706;2023-06-10T13:15:36;11.98;;;7.15;;
25213;SDS011;13160;51.834;4.706;2023-06-10T13:18:09;8.27;;;6.10;;
25213;SDS011;13160;51.834;4.706;2023-06-10T13:20:38;10.35;;;6.47;;
25213;SDS011;13160;51.834;4.706;2023-06-10T13:23:08;9.00;;;6.15;;
25213;SDS011;13160;51.834;4.706;2023-06-10T13:25:37;8.85;;;6.40;;
25213;SDS011;13160;51.834;4.706;2023-06-10T13:28:07;7.72;;;6.18;;
25213;SDS011;13160;51.834;4.706;2023-06-10T13:30:36;9.57;;;6.22;;
25213;SDS011;13160;51.834;4.706;2023-06-10T13:33:04;7.97;;;6.07;;
25213;SDS011;13160;51.834;4.706;2023-06-10T13:35:33;11.05;;;6.53;;
25213;SDS011;13160;51.834;4.706;2023-06-10T13:38:01;7.40;;;5.68;;
25213;SDS011;13160;51.834;4.706;2023-06-10T13:40:31;7.90;;;6.07;;
25213;SDS011;13160;51.834;4.706;2023-06-10T13:43:00;7.20;;;6.13;;
25213;SDS011;13160;51.834;4.706;2023-06-10T13:45:29;9.65;;;5.95;;
25213;SDS011;13160;51.834;4.706;2023-06-10T13:47:58;7.95;;;6.45;;
25213;SDS011;13160;51.834;4.706;2023-06-10T13:50:26;9.07;;;5.90;;
25213;SDS011;13160;51.834;4.706;2023-06-10T13:52:55;9.07;;;6.63;;
25213;SDS011;13160;51.834;4.706;2023-06-10T13:55:23;7.90;;;6.38;;
25213;SDS011;13160;51.834;4.706;2023-06-10T13:57:53;8.90;;;6.03;;
25213;SDS011;13160;51.834;4.706;2023-06-10T14:00:22;10.30;;;5.97;;
25213;SDS011;13160;51.834;4.706;2023-06-10T14:02:51;9.70;;;5.97;;
25213;SDS011;13160;51.834;4.706;2023-06-10T14:05:20;7.88;;;5.97;;
25213;SDS011;13160;51.834;4.706;2023-06-10T14:07:49;6.95;;;5.82;;
25213;SDS011;13160;51.834;4.706;2023-06-10T14:10:18;7.53;;;5.78;;
25213;SDS011;13160;51.834;4.706;2023-06-10T14:12:49;11.20;;;6.13;;
25213;SDS011;13160;51.834;4.706;2023-06-10T14:15:19;7.70;;;6.00;;
25213;SDS011;13160;51.834;4.706;2023-06-10T14:17:48;9.30;;;6.32;;
25213;SDS011;13160;51.834;4.706;2023-06-10T14:20:16;7.35;;;6.05;;
25213;SDS011;13160;51.834;4.706;2023-06-10T14:22:45;8.00;;;6.13;;
25213;SDS011;13160;51.834;4.706;2023-06-10T14:25:14;10.27;;;5.95;;
25213;SDS011;13160;51.834;4.706;2023-06-10T14:27:42;9.60;;;6.07;;
25213;SDS011;13160;51.834;4.706;2023-06-10T14:30:13;10.60;;;5.82;;
25213;SDS011;13160;51.834;4.706;2023-06-10T14:32:43;10.15;;;6.35;;
25213;SDS011;13160;51.834;4.706;2023-06-10T14:35:12;7.47;;;5.63;;
25213;SDS011;13160;51.834;4.706;2023-06-10T14:37:41;8.18;;;5.80;;
25213;SDS011;13160;51.834;4.706;2023-06-10T14:40:09;7.60;;;5.55;;
25213;SDS011;13160;51.834;4.706;2023-06-10T14:42:38;10.00;;;5.63;;
25213;SDS011;13160;51.834;4.706;2023-06-10T14:45:07;9.98;;;6.10;;
25213;SDS011;13160;51.834;4.706;2023-06-10T14:47:37;11.90;;;6.00;;
25213;SDS011;13160;51.834;4.706;2023-06-10T14:50:08;9.38;;;6.00;;
25213;SDS011;13160;51.834;4.706;2023-06-10T14:52:37;10.57;;;6.30;;
25213;SDS011;13160;51.834;4.706;2023-06-10T14:55:06;10.38;;;6.50;;
25213;SDS011;13160;51.834;4.706;2023-06-10T14:57:36;9.93;;;6.25;;